createdAt,value
2022-08-26T00:01:13.576Z,101478.27
2022-08-26T00:03:16.685Z,101476.79
2022-08-26T00:05:18.750Z,101478.56
2022-08-26T00:07:20.510Z,101486.05
2022-08-26T00:09:23.123Z,101488.60
2022-08-26T00:11:27.196Z,101488.29
2022-08-26T00:13:31.195Z,101487.09
2022-08-26T00:15:51.346Z,101485.27
2022-08-26T00:17:53.302Z,101487.54
2022-08-26T00:19:55.041Z,101488.95
2022-08-26T00:21:56.948Z,101493.25
2022-08-26T00:23:58.741Z,101502.31
2022-08-26T00:26:08.308Z,101499.36
2022-08-26T00:28:10.944Z,101495.04
2022-08-26T00:30:17.610Z,101497.40
2022-08-26T00:32:24.560Z,101502.38
2022-08-26T00:34:27.789Z,101498.92
2022-08-26T00:36:29.980Z,101501.44
2022-08-26T00:38:31.574Z,101495.43
2022-08-26T00:40:37.383Z,101495.84
2022-08-26T00:42:39.135Z,101495.36
2022-08-26T00:44:47.649Z,101493.87
2022-08-26T00:46:55.903Z,101496.64
2022-08-26T00:49:14.155Z,101496.30
2022-08-26T00:51:19.574Z,101491.16
2022-08-26T00:53:24.069Z,101492.55
2022-08-26T00:55:37.920Z,101493.22
2022-08-26T00:57:40.311Z,101497.42
2022-08-26T00:59:42.416Z,101493.05
2022-08-26T01:05:08.192Z,101492.29
2022-08-26T01:07:10.710Z,101494.67
2022-08-26T01:09:13.065Z,101493.10
2022-08-26T01:11:16.378Z,101491.74
2022-08-26T01:13:18.498Z,101487.59
2022-08-26T01:15:40.511Z,101486.77
2022-08-26T01:17:44.107Z,101486.71
2022-08-26T01:20:01.643Z,101487.86
2022-08-26T01:22:14.104Z,101486.58
2022-08-26T01:24:16.212Z,101488.59
2022-08-26T01:26:31.233Z,101489.34
2022-08-26T01:28:35.992Z,101491.67
2022-08-26T01:30:39.073Z,101489.61
2022-08-26T01:32:41.313Z,101491.98
2022-08-26T01:34:51.564Z,101491.55
2022-08-26T01:37:07.783Z,101496.42
2022-08-26T01:39:12.190Z,101496.20
2022-08-26T01:41:16.290Z,101496.83
2022-08-26T01:43:23.747Z,101493.45
2022-08-26T01:45:29.143Z,101491.69
2022-08-26T01:47:42.718Z,101490.21
2022-08-26T01:49:46.035Z,101491.65
2022-08-26T01:51:50.349Z,101492.18
2022-08-26T01:53:52.118Z,101490.70
2022-08-26T01:55:57.268Z,101488.64
2022-08-26T01:57:59.797Z,101489.02
2022-08-26T02:00:05.373Z,101490.80
2022-08-26T02:02:36.182Z,101487.55
2022-08-26T02:04:42.763Z,101488.03
2022-08-26T02:06:45.077Z,101487.94
2022-08-26T02:08:47.773Z,101487.98
2022-08-26T02:10:49.294Z,101491.30
2022-08-26T02:12:56.341Z,101493.56
2022-08-26T02:15:02.475Z,101493.94
2022-08-26T02:17:09.595Z,101492.15
2022-08-26T02:19:18.357Z,101492.82
2022-08-26T02:21:20.363Z,101494.00
2022-08-26T02:23:24.414Z,101495.50
2022-08-26T02:25:40.646Z,101491.69
2022-08-26T02:27:44.578Z,101494.33
2022-08-26T02:29:51.504Z,101495.66
2022-08-26T02:31:55.821Z,101495.30
2022-08-26T02:34:11.392Z,101500.41
2022-08-26T02:36:13.449Z,101497.55
2022-08-26T02:38:17.302Z,101500.64
2022-08-26T02:40:22.559Z,101497.51
2022-08-26T02:42:24.287Z,101498.70
2022-08-26T02:44:31.726Z,101498.29
2022-08-26T02:46:36.453Z,101494.46
2022-08-26T02:48:39.120Z,101496.19
2022-08-26T02:50:41.840Z,101495.16
2022-08-26T02:52:44.376Z,101496.48
2022-08-26T02:54:46.575Z,101498.65
2022-08-26T02:56:51.499Z,101500.77
2022-08-26T02:58:53.232Z,101500.54
2022-08-26T03:00:55.161Z,101502.03
2022-08-26T03:02:58.416Z,101507.11
2022-08-26T03:05:02.059Z,101510.25
2022-08-26T03:07:05.044Z,101511.19
2022-08-26T03:09:08.810Z,101507.77
2022-08-26T03:11:11.441Z,101506.80
2022-08-26T03:13:13.504Z,101504.02
2022-08-26T03:15:17.328Z,101504.40
2022-08-26T03:17:21.101Z,101501.98
2022-08-26T03:19:24.262Z,101500.36
2022-08-26T03:21:25.898Z,101496.40
2022-08-26T03:23:27.525Z,101494.87
2022-08-26T03:25:57.249Z,101495.65
2022-08-26T03:27:59.505Z,101491.48
2022-08-26T03:30:20.575Z,101491.06
2022-08-26T03:32:22.219Z,101491.01
2022-08-26T03:34:28.695Z,101487.61
2022-08-26T03:36:38.722Z,101488.11
2022-08-26T03:38:40.477Z,101485.92
2022-08-26T03:40:43.036Z,101481.34
2022-08-26T03:42:45.519Z,101481.04
2022-08-26T03:44:47.230Z,101477.98
2022-08-26T03:46:49.758Z,101478.46
2022-08-26T03:48:51.934Z,101478.34
2022-08-26T03:50:53.666Z,101477.42
2022-08-26T03:52:55.770Z,101472.27
2022-08-26T03:55:08.874Z,101473.95
2022-08-26T03:57:11.152Z,101471.05
2022-08-26T03:59:12.834Z,101477.23
2022-08-26T04:01:16.216Z,101475.09
2022-08-26T04:03:54.152Z,101473.11
2022-08-26T04:05:56.382Z,101477.68
2022-08-26T04:07:58.369Z,101478.16
2022-08-26T04:10:00.220Z,101475.69
2022-08-26T04:12:03.630Z,101477.05
2022-08-26T04:14:13.574Z,101481.73
2022-08-26T04:16:17.456Z,101485.36
2022-08-26T04:18:19.646Z,101484.52
2022-08-26T04:20:21.225Z,101486.77
2022-08-26T04:22:25.016Z,101483.63
2022-08-26T04:24:27.887Z,101483.27
2022-08-26T04:26:37.054Z,101484.74
2022-08-26T04:28:41.325Z,101485.13
2022-08-26T04:30:43.338Z,101485.54
2022-08-26T04:32:45.615Z,101491.10
2022-08-26T04:34:47.411Z,101490.27
2022-08-26T04:36:50.158Z,101492.14
2022-08-26T04:38:51.945Z,101490.71
2022-08-26T04:40:53.585Z,101495.40
2022-08-26T04:42:55.456Z,101494.47
2022-08-26T04:44:57.110Z,101494.52
2022-08-26T04:46:58.845Z,101494.41
2022-08-26T04:49:00.742Z,101492.56
2022-08-26T04:51:03.259Z,101491.77
2022-08-26T04:53:07.490Z,101492.40
2022-08-26T04:55:09.738Z,101489.23
2022-08-26T04:57:11.789Z,101491.10
2022-08-26T04:59:17.098Z,101494.27
2022-08-26T05:01:21.125Z,101494.20
2022-08-26T05:03:24.430Z,101497.08
2022-08-26T05:05:26.163Z,101495.92
2022-08-26T05:07:28.593Z,101492.94
2022-08-26T05:09:30.421Z,101495.25
2022-08-26T05:11:32.604Z,101492.51
2022-08-26T05:13:35.650Z,101497.14
2022-08-26T05:15:38.554Z,101496.44
2022-08-26T05:17:40.882Z,101494.48
2022-08-26T05:19:43.891Z,101495.67
2022-08-26T05:21:45.473Z,101497.66
2022-08-26T05:23:51.516Z,101498.51
2022-08-26T05:25:59.241Z,101499.67
2022-08-26T05:28:03.592Z,101503.41
2022-08-26T05:30:06.694Z,101500.67
2022-08-26T05:32:08.412Z,101501.54
2022-08-26T05:34:13.148Z,101501.77
2022-08-26T05:36:17.479Z,101500.05
2022-08-26T05:38:21.016Z,101502.96
2022-08-26T05:40:22.735Z,101505.23
2022-08-26T05:42:25.249Z,101504.56
2022-08-26T05:44:27.094Z,101505.09
2022-08-26T05:46:28.997Z,101501.77
2022-08-26T05:48:32.129Z,101502.92
2022-08-26T05:50:43.106Z,101501.98
2022-08-26T05:52:45.172Z,101507.55
2022-08-26T05:54:47.764Z,101504.70
2022-08-26T05:56:51.130Z,101505.23
2022-08-26T05:58:53.001Z,101504.30
2022-08-26T06:01:02.267Z,101502.29
2022-08-26T06:03:04.992Z,101502.60
2022-08-26T06:05:07.596Z,101502.19
2022-08-26T06:07:09.946Z,101506.36
2022-08-26T06:09:13.824Z,101501.95
2022-08-26T06:11:20.132Z,101504.30
2022-08-26T06:13:30.379Z,101502.59
2022-08-26T06:15:35.105Z,101504.43
2022-08-26T06:17:36.854Z,101500.15
2022-08-26T06:19:38.619Z,101498.67
2022-08-26T06:21:46.835Z,101498.14
2022-08-26T06:24:09.001Z,101498.56
2022-08-26T06:26:13.951Z,101494.41
2022-08-26T06:28:15.686Z,101489.69
2022-08-26T06:30:17.509Z,101488.60
2022-08-26T06:32:20.460Z,101485.48
2022-08-26T06:34:22.580Z,101492.16
2022-08-26T06:36:30.790Z,101495.05
2022-08-26T06:38:32.881Z,101497.68
2022-08-26T06:40:42.318Z,101500.14
2022-08-26T06:42:45.316Z,101498.82
2022-08-26T06:44:47.702Z,101496.86
2022-08-26T06:46:50.306Z,101491.91
2022-08-26T06:48:55.499Z,101496.27
2022-08-26T06:51:19.035Z,101494.10
2022-08-26T06:53:24.234Z,101495.69
2022-08-26T06:55:26.902Z,101494.79
2022-08-26T06:57:28.850Z,101496.90
2022-08-26T06:59:35.746Z,101495.48
2022-08-26T07:01:44.865Z,101495.55
2022-08-26T07:03:47.846Z,101495.86
2022-08-26T07:05:50.000Z,101497.19
2022-08-26T07:07:57.347Z,101499.46
2022-08-26T07:09:59.975Z,101500.89
2022-08-26T07:12:02.401Z,101500.65
2022-08-26T07:14:06.072Z,101499.88
2022-08-26T07:16:10.101Z,101499.81
2022-08-26T07:18:11.873Z,101499.66
2022-08-26T07:20:13.685Z,101500.80
2022-08-26T07:22:15.952Z,101499.40
2022-08-26T07:24:18.068Z,101496.66
2022-08-26T07:26:25.694Z,101494.99
2022-08-26T07:28:30.309Z,101497.90
2022-08-26T07:30:32.018Z,101499.27
2022-08-26T07:32:34.265Z,101498.57
2022-08-26T07:34:39.907Z,101494.31
2022-08-26T07:36:46.213Z,101500.05
2022-08-26T07:38:48.414Z,101502.92
2022-08-26T07:40:50.219Z,101504.98
2022-08-26T07:42:52.500Z,101502.31
2022-08-26T07:44:54.209Z,101502.91
2022-08-26T07:46:55.901Z,101500.23
2022-08-26T07:48:58.619Z,101494.71
2022-08-26T07:51:00.688Z,101494.89
2022-08-26T07:53:02.766Z,101495.41
2022-08-26T07:55:06.162Z,101498.52
2022-08-26T07:57:10.615Z,101501.15
2022-08-26T07:59:13.562Z,101503.52
2022-08-26T08:01:16.812Z,101501.86
2022-08-26T08:03:18.517Z,101497.38
2022-08-26T08:05:22.164Z,101500.13
2022-08-26T08:07:44.676Z,101503.33
2022-08-26T08:09:49.689Z,101499.85
2022-08-26T08:11:51.782Z,101499.45
2022-08-26T08:13:56.390Z,101500.95
2022-08-26T08:15:58.331Z,101504.65
2022-08-26T08:18:00.990Z,101499.73
2022-08-26T08:20:05.051Z,101502.14
2022-08-26T08:22:17.758Z,101499.86
2022-08-26T08:24:21.978Z,101495.63
2022-08-26T08:26:25.182Z,101498.55
2022-08-26T08:28:26.926Z,101497.27
2022-08-26T08:30:28.917Z,101498.94
2022-08-26T08:32:30.524Z,101503.41
2022-08-26T08:34:32.436Z,101501.50
2022-08-26T08:36:36.193Z,101502.42
2022-08-26T08:38:38.747Z,101497.20
2022-08-26T08:40:42.550Z,101496.43
2022-08-26T08:43:05.446Z,101498.00
2022-08-26T08:45:13.932Z,101497.13
2022-08-26T08:47:21.211Z,101499.12
2022-08-26T08:49:25.429Z,101499.06
2022-08-26T08:51:33.207Z,101497.29
2022-08-26T08:53:41.607Z,101501.13
2022-08-26T08:55:47.801Z,101504.58
2022-08-26T09:21:13.863Z,101497.27
2022-08-26T09:23:17.075Z,101491.69
2022-08-26T09:25:19.872Z,101492.69
2022-08-26T09:27:42.075Z,101492.41
2022-08-26T09:29:45.483Z,101493.44
2022-08-26T09:32:13.283Z,101490.92
2022-08-26T09:34:17.877Z,101488.55
2022-08-26T09:36:41.127Z,101487.03
2022-08-26T09:38:43.722Z,101482.58
2022-08-26T09:40:56.089Z,101484.47
2022-08-26T09:43:10.207Z,101481.55
2022-08-26T09:45:12.939Z,101481.15
2022-08-26T09:47:43.865Z,101477.86
2022-08-26T09:49:57.538Z,101475.27
2022-08-26T09:52:11.738Z,101471.28
2022-08-26T09:54:30.467Z,101466.73
2022-08-26T09:56:38.726Z,101466.89
2022-08-26T09:58:43.921Z,101465.92
2022-08-26T10:00:57.422Z,101462.88
2022-08-26T10:03:04.155Z,101453.14
2022-08-26T10:05:09.609Z,101447.23
2022-08-26T10:07:11.502Z,101446.60
2022-08-26T10:09:13.961Z,101445.41
2022-08-26T10:11:21.705Z,101444.05
2022-08-26T10:13:28.066Z,101444.23
2022-08-26T10:15:40.542Z,101443.65
2022-08-26T10:18:13.871Z,101442.34
2022-08-26T10:20:23.220Z,101441.94
2022-08-26T10:22:47.360Z,101445.29
2022-08-26T10:24:54.936Z,101437.41
2022-08-26T10:27:12.185Z,101435.48
2022-08-26T10:29:23.600Z,101432.41
2022-08-26T10:31:41.073Z,101427.48
2022-08-26T10:33:43.059Z,101427.29
2022-08-26T10:35:56.153Z,101424.05
2022-08-26T10:38:04.307Z,101418.93
2022-08-26T10:40:11.439Z,101416.98
2022-08-26T10:42:24.841Z,101412.97
2022-08-26T10:44:27.667Z,101411.31
2022-08-26T10:46:39.782Z,101411.27
2022-08-26T10:48:48.038Z,101405.90
2022-08-26T10:50:49.908Z,101402.34
2022-08-26T10:53:00.260Z,101403.17
2022-08-26T10:55:03.589Z,101400.59
2022-08-26T10:57:23.465Z,101401.41
2022-08-26T10:59:31.023Z,101394.77
2022-08-26T11:01:47.066Z,101394.84
2022-08-26T11:04:16.898Z,101389.98
2022-08-26T11:06:18.563Z,101393.89
2022-08-26T11:08:20.146Z,101389.19
2022-08-26T11:10:25.010Z,101391.11
2022-08-26T11:12:36.103Z,101393.89
2022-08-26T11:28:48.639Z,101370.73
2022-08-26T11:30:56.943Z,101368.71
2022-08-26T11:33:00.319Z,101360.98
2022-08-26T11:35:06.578Z,101362.17
2022-08-26T11:37:14.046Z,101361.29
2022-08-26T11:39:19.519Z,101356.14
2022-08-26T11:41:22.507Z,101353.42
2022-08-26T11:43:26.513Z,101355.52
2022-08-26T11:45:40.666Z,101351.54
2022-08-26T11:47:44.783Z,101349.96
2022-08-26T11:49:46.742Z,101344.45
2022-08-26T11:51:48.748Z,101346.71
2022-08-26T11:53:51.554Z,101344.54
2022-08-26T11:55:55.533Z,101340.88
2022-08-26T11:58:00.894Z,101341.41
2022-08-26T12:00:05.141Z,101338.30
2022-08-26T12:02:14.823Z,101333.13
2022-08-26T12:04:31.206Z,101336.61
2022-08-26T12:06:54.191Z,101337.31
2022-08-26T12:09:11.443Z,101336.95
2022-08-26T12:11:28.546Z,101329.26
2022-08-26T12:13:30.535Z,101327.17
2022-08-26T12:15:34.903Z,101325.67
2022-08-26T12:17:39.378Z,101320.02
2022-08-26T12:19:43.590Z,101314.45
2022-08-26T12:22:15.601Z,101320.79
2022-08-26T12:24:19.023Z,101313.46
2022-08-26T12:26:21.899Z,101313.58
2022-08-26T12:28:23.705Z,101309.64
2022-08-26T12:30:26.236Z,101307.71
2022-08-26T12:32:30.376Z,101307.68
2022-08-26T12:34:32.367Z,101312.14
2022-08-26T12:36:46.678Z,101308.21
2022-08-26T12:38:48.734Z,101307.02
2022-08-26T12:40:50.913Z,101303.14
2022-08-26T12:46:18.243Z,101296.64
2022-08-26T12:48:30.495Z,101294.25
2022-08-26T12:50:52.767Z,101290.84
2022-08-26T12:53:00.625Z,101287.23
2022-08-26T12:55:06.883Z,101284.46
2022-08-26T12:57:10.819Z,101288.76
2022-08-26T12:59:41.030Z,101286.30
2022-08-26T13:01:44.517Z,101282.02
2022-08-26T13:03:49.750Z,101280.77
2022-08-26T13:05:51.735Z,101282.22
2022-08-26T13:08:12.072Z,101281.95
2022-08-26T13:10:39.368Z,101288.91
2022-08-26T13:12:42.077Z,101293.22
2022-08-26T13:14:44.119Z,101293.27
2022-08-26T13:16:49.785Z,101290.40
2022-08-26T13:18:54.573Z,101284.52
2022-08-26T13:20:59.935Z,101282.39
2022-08-26T13:23:12.019Z,101280.90
2022-08-26T13:25:19.708Z,101271.36
2022-08-26T13:27:26.231Z,101269.64
2022-08-26T13:29:28.652Z,101269.63
2022-08-26T13:31:35.630Z,101270.42
2022-08-26T13:34:40.990Z,101271.10
2022-08-26T13:38:03.741Z,101270.20
2022-08-26T13:41:29.624Z,101266.66
2022-08-26T13:44:52.580Z,101262.64
2022-08-26T13:48:21.538Z,101260.66
2022-08-26T13:51:46.366Z,101250.38
2022-08-26T13:55:09.263Z,101238.90
2022-08-26T13:58:39.026Z,101232.61
2022-08-26T14:02:02.579Z,101229.34
2022-08-26T14:05:34.095Z,101226.34
2022-08-26T14:08:58.697Z,101228.03
2022-08-26T14:16:13.445Z,101240.00
2022-08-26T14:18:16.982Z,101237.68
2022-08-26T14:20:24.326Z,101236.67
2022-08-26T14:22:25.984Z,101236.23
2022-08-26T14:24:27.950Z,101233.62
2022-08-26T14:26:30.086Z,101232.29
2022-08-26T14:28:31.939Z,101226.02
2022-08-26T14:30:34.093Z,101226.98
2022-08-26T14:32:36.053Z,101225.05
2022-08-26T14:34:40.166Z,101226.74
2022-08-26T14:36:41.963Z,101225.51
2022-08-26T14:38:44.133Z,101231.98
2022-08-26T14:40:45.777Z,101232.28
2022-08-26T14:42:52.881Z,101230.72
2022-08-26T14:44:58.195Z,101231.39
2022-08-26T14:47:02.052Z,101231.52
2022-08-26T14:49:07.259Z,101230.58
2022-08-26T14:51:11.824Z,101235.58
2022-08-26T14:53:32.140Z,101238.60
2022-08-26T14:55:36.011Z,101240.94
2022-08-26T14:57:37.662Z,101244.30
2022-08-26T14:59:49.639Z,101244.98
2022-08-26T15:01:52.748Z,101241.40
2022-08-26T15:03:56.690Z,101239.08
2022-08-26T15:06:00.097Z,101237.83
2022-08-26T15:08:04.589Z,101237.67
2022-08-26T15:10:18.110Z,101238.39
2022-08-26T15:12:19.870Z,101237.48
2022-08-26T15:14:22.474Z,101237.27
2022-08-26T15:16:24.391Z,101234.09
2022-08-26T15:18:26.270Z,101233.16
2022-08-26T15:20:27.958Z,101234.00
2022-08-26T15:22:29.893Z,101239.17
2022-08-26T15:24:32.030Z,101234.95
2022-08-26T15:26:33.742Z,101233.14
2022-08-26T15:28:36.065Z,101229.33
2022-08-26T15:30:38.266Z,101229.28
2022-08-26T15:32:40.074Z,101229.42
2022-08-26T15:34:41.738Z,101227.84
2022-08-26T15:36:44.804Z,101228.58
2022-08-26T15:38:47.651Z,101227.52
2022-08-26T15:40:49.348Z,101226.25
2022-08-26T15:42:54.502Z,101219.77
2022-08-26T15:45:03.176Z,101219.02
2022-08-26T15:47:04.999Z,101215.64
2022-08-26T15:49:07.204Z,101217.63
2022-08-26T15:51:22.849Z,101213.15
2022-08-26T15:53:24.717Z,101207.80
2022-08-26T15:55:26.565Z,101203.73
2022-08-26T15:57:30.457Z,101201.14
2022-08-26T15:59:32.558Z,101198.95
2022-08-26T16:01:35.630Z,101201.30
2022-08-26T16:03:37.322Z,101205.98
2022-08-26T16:05:41.321Z,101211.59
2022-08-26T16:07:42.993Z,101205.09
2022-08-26T16:09:44.742Z,101207.16
2022-08-26T16:11:47.793Z,101207.48
2022-08-26T16:13:49.961Z,101210.11
2022-08-26T16:15:52.997Z,101211.10
2022-08-26T16:17:54.801Z,101216.63
2022-08-26T16:19:56.434Z,101216.61
2022-08-26T16:21:57.985Z,101216.02
2022-08-26T16:23:59.702Z,101218.23
2022-08-26T16:26:10.646Z,101213.50
2022-08-26T16:28:14.117Z,101210.83
2022-08-26T16:30:27.858Z,101213.21
2022-08-26T16:32:31.235Z,101215.67
2022-08-26T16:34:36.157Z,101215.21
2022-08-26T16:36:39.071Z,101222.14
2022-08-26T16:38:41.506Z,101220.80
2022-08-26T16:40:43.178Z,101220.55
2022-08-26T16:42:44.841Z,101224.36
2022-08-26T16:44:46.602Z,101223.20
2022-08-26T16:46:48.408Z,101223.30
2022-08-26T16:48:50.150Z,101228.40
2022-08-26T16:50:51.797Z,101226.84
2022-08-26T16:52:55.613Z,101226.79
2022-08-26T16:54:58.541Z,101228.11
2022-08-26T16:57:00.241Z,101227.41
2022-08-26T16:59:02.939Z,101227.36
2022-08-26T17:01:04.776Z,101224.04
2022-08-26T17:03:06.678Z,101228.02
2022-08-26T17:05:09.571Z,101226.14
2022-08-26T17:07:11.263Z,101228.49
2022-08-26T17:09:12.922Z,101228.52
2022-08-26T17:11:15.297Z,101225.76
2022-08-26T17:13:20.904Z,101224.73
2022-08-26T17:15:36.825Z,101218.14
2022-08-26T17:17:39.787Z,101222.86
2022-08-26T17:19:47.181Z,101223.47
2022-08-26T17:21:49.304Z,101223.52
2022-08-26T17:23:52.133Z,101223.67
2022-08-26T17:25:53.794Z,101224.05
2022-08-26T17:29:58.391Z,101222.80
2022-08-26T17:32:01.173Z,101218.34
2022-08-26T17:34:05.585Z,101220.05
2022-08-26T17:36:08.678Z,101219.48
2022-08-26T17:38:10.595Z,101219.96
2022-08-26T17:40:15.548Z,101216.55
2022-08-26T17:42:17.325Z,101213.73
2022-08-26T17:44:18.926Z,101211.34
2022-08-26T17:46:20.633Z,101210.56
2022-08-26T17:48:22.429Z,101209.21
2022-08-26T17:50:24.471Z,101210.33
2022-08-26T17:52:26.103Z,101209.72
2022-08-26T17:54:28.380Z,101209.54
2022-08-26T17:56:32.977Z,101210.63
2022-08-26T17:58:35.691Z,101209.52
2022-08-26T18:00:37.433Z,101209.96
2022-08-26T18:02:39.707Z,101208.80
2022-08-26T18:04:41.613Z,101213.99
2022-08-26T18:06:45.692Z,101220.16
2022-08-26T18:08:48.565Z,101220.05
2022-08-26T18:10:50.862Z,101218.69
2022-08-26T18:12:52.642Z,101221.31
2022-08-26T18:14:54.201Z,101220.73
2022-08-26T18:16:56.937Z,101224.12
2022-08-26T18:19:00.289Z,101230.77
2022-08-26T18:21:02.579Z,101231.49
2022-08-26T18:23:04.257Z,101234.30
2022-08-26T18:25:07.606Z,101237.38
2022-08-26T18:27:09.437Z,101236.11
2022-08-26T18:29:11.326Z,101234.21
2022-08-26T18:31:13.541Z,101231.54
2022-08-26T18:33:15.337Z,101233.72
2022-08-26T18:35:17.227Z,101233.89
2022-08-26T18:37:18.831Z,101231.77
2022-08-26T18:39:22.196Z,101232.85
2022-08-26T18:41:27.849Z,101230.67
2022-08-26T18:43:29.487Z,101232.45
2022-08-26T18:45:31.230Z,101236.61
2022-08-26T18:47:33.308Z,101235.95
2022-08-26T18:49:35.017Z,101242.13
2022-08-26T18:51:38.022Z,101240.92
2022-08-26T18:53:42.130Z,101242.33
2022-08-26T18:55:43.765Z,101244.31
2022-08-26T18:57:45.521Z,101248.38
2022-08-26T18:59:47.154Z,101248.15
2022-08-26T19:01:50.533Z,101243.13
2022-08-26T19:03:52.557Z,101243.54
2022-08-26T19:05:54.481Z,101248.48
2022-08-26T19:07:56.627Z,101247.84
2022-08-26T19:09:58.518Z,101250.02
2022-08-26T19:12:01.540Z,101249.13
2022-08-26T19:14:06.482Z,101249.33
2022-08-26T19:16:08.242Z,101249.79
2022-08-26T19:18:11.865Z,101251.98
2022-08-26T19:20:13.595Z,101258.20
2022-08-26T19:22:15.325Z,101259.83
2022-08-26T19:24:17.858Z,101261.25
2022-08-26T19:26:19.586Z,101261.36
2022-08-26T19:28:21.525Z,101259.83
2022-08-26T19:30:23.290Z,101265.11
2022-08-26T19:32:25.485Z,101265.57
2022-08-26T19:34:28.146Z,101275.46
2022-08-26T19:36:29.781Z,101275.12
2022-08-26T19:38:32.526Z,101276.94
2022-08-26T19:40:35.808Z,101280.05
2022-08-26T19:42:37.592Z,101281.82
2022-08-26T19:44:58.085Z,101283.20
2022-08-26T19:47:00.009Z,101283.02
2022-08-26T19:49:01.688Z,101286.73
2022-08-26T19:51:03.602Z,101285.95
2022-08-26T19:53:05.915Z,101287.98
2022-08-26T19:55:09.176Z,101286.45
2022-08-26T19:57:10.950Z,101291.20
2022-08-26T19:59:13.179Z,101289.86
2022-08-26T20:01:15.775Z,101292.77
2022-08-26T20:03:17.550Z,101294.20
2022-08-26T20:05:21.301Z,101297.40
2022-08-26T20:07:23.167Z,101296.08
2022-08-26T20:09:25.295Z,101296.77
2022-08-26T20:11:27.058Z,101300.56
2022-08-26T20:13:28.684Z,101300.70
2022-08-26T20:15:30.475Z,101303.59
2022-08-26T20:17:32.963Z,101307.70
2022-08-26T20:19:53.449Z,101309.78
2022-08-26T20:21:55.206Z,101316.27
2022-08-26T20:24:09.630Z,101311.24
2022-08-26T20:26:11.311Z,101311.83
2022-08-26T20:28:12.965Z,101309.48
2022-08-26T20:30:15.513Z,101310.46
2022-08-26T20:32:17.189Z,101308.35
2022-08-26T20:34:19.834Z,101314.77
2022-08-26T20:36:23.685Z,101315.72
2022-08-26T20:38:25.364Z,101317.05
2022-08-26T20:40:27.152Z,101319.75
2022-08-26T20:42:29.021Z,101322.11
2022-08-26T20:44:30.643Z,101325.16
2022-08-26T20:46:33.759Z,101327.94
2022-08-26T20:48:35.529Z,101322.31
2022-08-26T20:50:38.262Z,101327.38
2022-08-26T20:52:39.940Z,101328.04
2022-08-26T20:54:41.722Z,101329.45
2022-08-26T20:56:43.353Z,101326.14
2022-08-26T20:58:45.159Z,101324.18
2022-08-26T21:00:46.902Z,101328.11
2022-08-26T21:02:50.686Z,101329.04
2022-08-26T21:04:52.415Z,101329.69
2022-08-26T21:06:57.292Z,101333.48
2022-08-26T21:08:58.940Z,101333.66
2022-08-26T21:11:01.881Z,101331.00
2022-08-26T21:13:05.385Z,101328.35
2022-08-26T21:15:07.441Z,101327.94
2022-08-26T21:17:09.378Z,101328.87
2022-08-26T21:19:14.169Z,101329.18
2022-08-26T21:21:16.357Z,101327.76
2022-08-26T21:23:20.359Z,101329.56
2022-08-26T21:25:22.507Z,101331.38
2022-08-26T21:27:26.265Z,101329.18
2022-08-26T21:29:28.353Z,101333.55
2022-08-26T21:31:31.985Z,101339.23
2022-08-26T21:33:34.316Z,101341.97
2022-08-26T21:35:35.965Z,101343.36
2022-08-26T21:37:37.649Z,101347.48
2022-08-26T21:39:39.286Z,101344.33
2022-08-26T21:41:43.038Z,101347.92
2022-08-26T21:43:45.520Z,101347.90
2022-08-26T21:45:47.157Z,101350.55
2022-08-26T21:47:48.849Z,101349.45
2022-08-26T21:49:51.125Z,101348.80
2022-08-26T21:51:52.795Z,101350.84
2022-08-26T21:53:56.082Z,101349.62
2022-08-26T21:55:57.862Z,101350.23
2022-08-26T21:57:59.638Z,101350.28
2022-08-26T22:00:01.403Z,101351.87
2022-08-26T22:02:08.685Z,101351.02
2022-08-26T22:04:11.525Z,101351.14
2022-08-26T22:06:13.827Z,101352.51
2022-08-26T22:08:15.799Z,101351.22
2022-08-26T22:10:17.619Z,101348.23
2022-08-26T22:12:20.358Z,101347.38
2022-08-26T22:14:22.512Z,101347.11
2022-08-26T22:16:26.825Z,101344.64
2022-08-26T22:18:29.452Z,101349.04
2022-08-26T22:20:31.732Z,101347.99
2022-08-26T22:22:33.368Z,101351.44
2022-08-26T22:24:35.565Z,101348.39
2022-08-26T22:26:37.213Z,101347.80
2022-08-26T22:28:39.337Z,101347.06
2022-08-26T22:30:41.302Z,101349.09
2022-08-26T22:32:46.022Z,101350.13
2022-08-26T22:34:48.526Z,101350.67
2022-08-26T22:36:51.804Z,101348.47
2022-08-26T22:38:54.794Z,101347.77
2022-08-26T22:40:56.543Z,101347.88
2022-08-26T22:43:00.350Z,101351.36
2022-08-26T22:45:03.512Z,101350.49
2022-08-26T22:47:07.365Z,101354.10
2022-08-26T22:49:12.147Z,101352.67
2022-08-26T22:51:17.126Z,101355.52
2022-08-26T22:53:18.842Z,101354.88
2022-08-26T22:55:20.485Z,101356.05
2022-08-26T22:57:22.363Z,101356.07
2022-08-26T22:59:24.578Z,101360.18
2022-08-26T23:01:26.462Z,101361.52
2022-08-26T23:03:29.479Z,101361.53
2022-08-26T23:05:31.967Z,101364.70
2022-08-26T23:07:35.231Z,101359.25
2022-08-26T23:09:37.022Z,101361.14
2022-08-26T23:11:42.564Z,101359.40
2022-08-26T23:13:44.190Z,101361.44
2022-08-26T23:15:46.403Z,101364.05
2022-08-26T23:17:58.425Z,101365.75
2022-08-26T23:20:00.745Z,101367.84
2022-08-26T23:22:02.423Z,101369.41
2022-08-26T23:24:05.381Z,101371.89
2022-08-26T23:26:08.768Z,101371.13
2022-08-26T23:28:10.645Z,101374.40
2022-08-26T23:30:21.472Z,101375.31
2022-08-26T23:32:23.127Z,101370.52
2022-08-26T23:34:43.465Z,101367.95
2022-08-26T23:36:45.133Z,101371.77
2022-08-26T23:38:52.674Z,101371.09
2022-08-26T23:40:54.865Z,101367.88
2022-08-26T23:42:58.065Z,101370.34
2022-08-26T23:45:01.157Z,101368.02
2022-08-26T23:47:03.537Z,101369.10
2022-08-26T23:49:05.369Z,101364.08
2022-08-26T23:51:25.377Z,101364.16
2022-08-26T23:53:27.125Z,101359.92
2022-08-26T23:55:28.797Z,101360.78
2022-08-26T23:57:30.518Z,101361.39
2022-08-26T23:59:34.015Z,101361.14
